sensor_id;sensor_type;location;lat;lon;timestamp;P1;durP1;ratioP1;P2;durP2;ratioP2
16502;SDS011;53067;48.114;11.694;2022-09-23T00:01:23;4.40;;;4.00;;
16502;SDS011;53067;48.114;11.694;2022-09-23T00:03:50;3.83;;;3.50;;
16502;SDS011;53067;48.114;11.694;2022-09-23T00:06:19;3.67;;;3.47;;
16502;SDS011;53067;48.114;11.694;2022-09-23T00:08:48;4.07;;;3.77;;
16502;SDS011;53067;48.114;11.694;2022-09-23T00:11:20;4.03;;;3.60;;
16502;SDS011;53067;48.114;11.694;2022-09-23T00:13:51;4.50;;;3.73;;
16502;SDS011;53067;48.114;11.694;2022-09-23T00:16:22;3.87;;;3.57;;
16502;SDS011;53067;48.114;11.694;2022-09-23T00:18:51;4.30;;;3.90;;
16502;SDS011;53067;48.114;11.694;2022-09-23T00:21:19;6.20;;;4.20;;
16502;SDS011;53067;48.114;11.694;2022-09-23T00:23:48;3.93;;;3.63;;
16502;SDS011;53067;48.114;11.694;2022-09-23T00:26:17;3.53;;;3.27;;
16502;SDS011;53067;48.114;11.694;2022-09-23T00:28:46;3.60;;;3.30;;
16502;SDS011;53067;48.114;11.694;2022-09-23T00:31:19;3.77;;;3.47;;
16502;SDS011;53067;48.114;11.694;2022-09-23T00:33:45;3.43;;;3.23;;
16502;SDS011;53067;48.114;11.694;2022-09-23T00:36:13;3.20;;;2.90;;
16502;SDS011;53067;48.114;11.694;2022-09-23T00:38:42;4.23;;;3.83;;
16502;SDS011;53067;48.114;11.694;2022-09-23T00:41:11;3.63;;;3.33;;
16502;SDS011;53067;48.114;11.694;2022-09-23T00:43:42;3.43;;;3.13;;
16502;SDS011;53067;48.114;11.694;2022-09-23T00:46:18;4.73;;;3.50;;
16502;SDS011;53067;48.114;11.694;2022-09-23T00:48:42;3.57;;;3.33;;
16502;SDS011;53067;48.114;11.694;2022-09-23T00:51:12;3.77;;;3.47;;
16502;SDS011;53067;48.114;11.694;2022-09-23T00:53:45;3.77;;;3.50;;
16502;SDS011;53067;48.114;11.694;2022-09-23T00:56:14;3.77;;;3.47;;
16502;SDS011;53067;48.114;11.694;2022-09-23T00:58:43;4.93;;;3.70;;
16502;SDS011;53067;48.114;11.694;2022-09-23T01:01:14;4.13;;;3.77;;
16502;SDS011;53067;48.114;11.694;2022-09-23T01:03:42;3.70;;;3.30;;
16502;SDS011;53067;48.114;11.694;2022-09-23T01:06:11;3.57;;;3.10;;
16502;SDS011;53067;48.114;11.694;2022-09-23T01:08:40;4.30;;;3.90;;
16502;SDS011;53067;48.114;11.694;2022-09-23T01:11:13;4.50;;;3.83;;
16502;SDS011;53067;48.114;11.694;2022-09-23T01:13:52;4.23;;;3.83;;
16502;SDS011;53067;48.114;11.694;2022-09-23T01:16:44;3.50;;;3.20;;
16502;SDS011;53067;48.114;11.694;2022-09-23T01:19:25;3.83;;;3.53;;
16502;SDS011;53067;48.114;11.694;2022-09-23T01:22:02;4.97;;;3.90;;
16502;SDS011;53067;48.114;11.694;2022-09-23T01:30:41;4.33;;;3.50;;
16502;SDS011;53067;48.114;11.694;2022-09-23T01:36:23;5.50;;;4.57;;
16502;SDS011;53067;48.114;11.694;2022-09-23T01:42:16;4.20;;;3.90;;
16502;SDS011;53067;48.114;11.694;2022-09-23T01:44:48;4.80;;;4.40;;
16502;SDS011;53067;48.114;11.694;2022-09-23T01:47:57;5.23;;;3.90;;
16502;SDS011;53067;48.114;11.694;2022-09-23T01:51:05;4.20;;;3.80;;
16502;SDS011;53067;48.114;11.694;2022-09-23T01:53:49;4.07;;;3.77;;
16502;SDS011;53067;48.114;11.694;2022-09-23T02:01:46;4.00;;;3.70;;
16502;SDS011;53067;48.114;11.694;2022-09-23T02:04:24;4.03;;;3.73;;
16502;SDS011;53067;48.114;11.694;2022-09-23T02:06:50;4.20;;;3.90;;
16502;SDS011;53067;48.114;11.694;2022-09-23T02:09:23;5.13;;;4.70;;
16502;SDS011;53067;48.114;11.694;2022-09-23T02:11:55;3.97;;;3.67;;
16502;SDS011;53067;48.114;11.694;2022-09-23T02:14:29;4.10;;;3.70;;
16502;SDS011;53067;48.114;11.694;2022-09-23T02:17:03;4.30;;;3.90;;
16502;SDS011;53067;48.114;11.694;2022-09-23T02:22:11;4.10;;;3.70;;
16502;SDS011;53067;48.114;11.694;2022-09-23T02:24:39;4.30;;;3.90;;
16502;SDS011;53067;48.114;11.694;2022-09-23T02:32:46;4.80;;;3.67;;
16502;SDS011;53067;48.114;11.694;2022-09-23T02:35:22;4.40;;;4.00;;
16502;SDS011;53067;48.114;11.694;2022-09-23T02:43:22;4.30;;;3.90;;
16502;SDS011;53067;48.114;11.694;2022-09-23T02:45:58;4.17;;;3.77;;
16502;SDS011;53067;48.114;11.694;2022-09-23T02:48:33;4.37;;;3.97;;
16502;SDS011;53067;48.114;11.694;2022-09-23T02:50:57;4.77;;;3.57;;
16502;SDS011;53067;48.114;11.694;2022-09-23T02:53:27;4.13;;;3.77;;
16502;SDS011;53067;48.114;11.694;2022-09-23T02:55:58;3.83;;;3.43;;
16502;SDS011;53067;48.114;11.694;2022-09-23T02:58:27;3.83;;;3.53;;
16502;SDS011;53067;48.114;11.694;2022-09-23T03:01:06;3.80;;;3.50;;
16502;SDS011;53067;48.114;11.694;2022-09-23T03:03:38;3.87;;;3.57;;
16502;SDS011;53067;48.114;11.694;2022-09-23T03:09:05;4.40;;;4.00;;
16502;SDS011;53067;48.114;11.694;2022-09-23T03:11:34;3.90;;;3.60;;
16502;SDS011;53067;48.114;11.694;2022-09-23T03:19:34;3.90;;;3.63;;
16502;SDS011;53067;48.114;11.694;2022-09-23T03:22:07;3.80;;;3.50;;
16502;SDS011;53067;48.114;11.694;2022-09-23T03:24:37;3.70;;;3.40;;
16502;SDS011;53067;48.114;11.694;2022-09-23T03:27:11;3.83;;;3.53;;
16502;SDS011;53067;48.114;11.694;2022-09-23T03:29:42;4.03;;;3.73;;
16502;SDS011;53067;48.114;11.694;2022-09-23T03:32:12;4.00;;;3.70;;
16502;SDS011;53067;48.114;11.694;2022-09-23T03:34:42;3.60;;;3.30;;
16502;SDS011;53067;48.114;11.694;2022-09-23T03:37:19;3.60;;;3.30;;
16502;SDS011;53067;48.114;11.694;2022-09-23T03:40:08;4.27;;;3.77;;
16502;SDS011;53067;48.114;11.694;2022-09-23T03:42:37;3.57;;;3.33;;
16502;SDS011;53067;48.114;11.694;2022-09-23T03:45:05;4.07;;;3.77;;
16502;SDS011;53067;48.114;11.694;2022-09-23T03:47:37;4.40;;;4.00;;
16502;SDS011;53067;48.114;11.694;2022-09-23T03:50:07;3.67;;;3.43;;
16502;SDS011;53067;48.114;11.694;2022-09-23T03:52:35;4.00;;;3.60;;
16502;SDS011;53067;48.114;11.694;2022-09-23T03:55:05;3.83;;;3.53;;
16502;SDS011;53067;48.114;11.694;2022-09-23T03:57:33;3.60;;;3.30;;
16502;SDS011;53067;48.114;11.694;2022-09-23T04:00:02;3.53;;;3.23;;
16502;SDS011;53067;48.114;11.694;2022-09-23T04:02:31;3.73;;;3.43;;
16502;SDS011;53067;48.114;11.694;2022-09-23T04:04:59;3.87;;;3.47;;
16502;SDS011;53067;48.114;11.694;2022-09-23T04:07:26;3.77;;;3.57;;
16502;SDS011;53067;48.114;11.694;2022-09-23T04:09:54;3.77;;;3.37;;
16502;SDS011;53067;48.114;11.694;2022-09-23T04:12:22;3.77;;;3.47;;
16502;SDS011;53067;48.114;11.694;2022-09-23T04:14:49;3.70;;;3.50;;
16502;SDS011;53067;48.114;11.694;2022-09-23T04:17:17;4.00;;;3.70;;
16502;SDS011;53067;48.114;11.694;2022-09-23T04:19:45;4.03;;;3.73;;
16502;SDS011;53067;48.114;11.694;2022-09-23T04:22:12;3.50;;;3.30;;
16502;SDS011;53067;48.114;11.694;2022-09-23T04:24:40;3.90;;;3.60;;
16502;SDS011;53067;48.114;11.694;2022-09-23T04:27:07;3.77;;;3.47;;
16502;SDS011;53067;48.114;11.694;2022-09-23T04:29:35;5.23;;;3.60;;
16502;SDS011;53067;48.114;11.694;2022-09-23T04:32:02;5.43;;;3.70;;
16502;SDS011;53067;48.114;11.694;2022-09-23T04:34:30;4.07;;;3.73;;
16502;SDS011;53067;48.114;11.694;2022-09-23T04:36:57;4.30;;;3.90;;
16502;SDS011;53067;48.114;11.694;2022-09-23T04:39:25;3.63;;;3.40;;
16502;SDS011;53067;48.114;11.694;2022-09-23T04:41:52;3.67;;;3.43;;
16502;SDS011;53067;48.114;11.694;2022-09-23T04:44:20;3.83;;;3.53;;
16502;SDS011;53067;48.114;11.694;2022-09-23T04:46:47;3.27;;;3.07;;
16502;SDS011;53067;48.114;11.694;2022-09-23T04:49:15;3.53;;;3.20;;
16502;SDS011;53067;48.114;11.694;2022-09-23T04:51:43;3.70;;;3.40;;
16502;SDS011;53067;48.114;11.694;2022-09-23T04:54:11;4.20;;;3.80;;
16502;SDS011;53067;48.114;11.694;2022-09-23T04:56:40;4.00;;;3.70;;
16502;SDS011;53067;48.114;11.694;2022-09-23T04:59:08;3.60;;;3.40;;
16502;SDS011;53067;48.114;11.694;2022-09-23T05:01:36;3.63;;;3.33;;
16502;SDS011;53067;48.114;11.694;2022-09-23T05:04:05;4.10;;;3.70;;
16502;SDS011;53067;48.114;11.694;2022-09-23T05:06:34;3.10;;;2.90;;
16502;SDS011;53067;48.114;11.694;2022-09-23T05:09:04;3.67;;;3.37;;
16502;SDS011;53067;48.114;11.694;2022-09-23T05:11:33;3.63;;;3.33;;
16502;SDS011;53067;48.114;11.694;2022-09-23T05:14:01;3.47;;;3.17;;
16502;SDS011;53067;48.114;11.694;2022-09-23T05:16:29;4.07;;;3.67;;
16502;SDS011;53067;48.114;11.694;2022-09-23T05:18:56;3.33;;;3.00;;
16502;SDS011;53067;48.114;11.694;2022-09-23T05:21:24;3.93;;;3.53;;
16502;SDS011;53067;48.114;11.694;2022-09-23T05:23:54;3.80;;;3.50;;
16502;SDS011;53067;48.114;11.694;2022-09-23T05:26:24;3.83;;;3.50;;
16502;SDS011;53067;48.114;11.694;2022-09-23T05:28:54;4.33;;;3.73;;
16502;SDS011;53067;48.114;11.694;2022-09-23T05:31:23;4.10;;;3.80;;
16502;SDS011;53067;48.114;11.694;2022-09-23T05:33:56;5.67;;;3.90;;
16502;SDS011;53067;48.114;11.694;2022-09-23T05:36:26;5.07;;;4.10;;
16502;SDS011;53067;48.114;11.694;2022-09-23T05:38:55;4.23;;;3.80;;
16502;SDS011;53067;48.114;11.694;2022-09-23T05:41:23;4.10;;;3.67;;
16502;SDS011;53067;48.114;11.694;2022-09-23T05:43:52;4.27;;;3.87;;
16502;SDS011;53067;48.114;11.694;2022-09-23T05:46:21;5.00;;;3.83;;
16502;SDS011;53067;48.114;11.694;2022-09-23T05:48:50;4.83;;;4.20;;
16502;SDS011;53067;48.114;11.694;2022-09-23T05:51:18;5.10;;;4.60;;
16502;SDS011;53067;48.114;11.694;2022-09-23T05:53:47;4.40;;;4.00;;
16502;SDS011;53067;48.114;11.694;2022-09-23T05:56:18;5.70;;;4.13;;
16502;SDS011;53067;48.114;11.694;2022-09-23T05:58:50;5.67;;;4.10;;
16502;SDS011;53067;48.114;11.694;2022-09-23T06:01:20;5.77;;;3.77;;
16502;SDS011;53067;48.114;11.694;2022-09-23T06:03:51;5.93;;;3.87;;
16502;SDS011;53067;48.114;11.694;2022-09-23T06:06:24;4.27;;;3.87;;
16502;SDS011;53067;48.114;11.694;2022-09-23T06:08:53;4.73;;;3.90;;
16502;SDS011;53067;48.114;11.694;2022-09-23T06:11:21;4.27;;;3.90;;
16502;SDS011;53067;48.114;11.694;2022-09-23T06:13:48;4.00;;;3.70;;
16502;SDS011;53067;48.114;11.694;2022-09-23T06:16:21;3.90;;;3.60;;
16502;SDS011;53067;48.114;11.694;2022-09-23T06:18:48;4.33;;;3.83;;
16502;SDS011;53067;48.114;11.694;2022-09-23T06:21:16;4.43;;;4.03;;
16502;SDS011;53067;48.114;11.694;2022-09-23T06:23:44;4.50;;;4.10;;
16502;SDS011;53067;48.114;11.694;2022-09-23T06:26:13;3.90;;;3.60;;
16502;SDS011;53067;48.114;11.694;2022-09-23T06:28:43;4.13;;;3.53;;
16502;SDS011;53067;48.114;11.694;2022-09-23T06:31:16;4.63;;;3.57;;
16502;SDS011;53067;48.114;11.694;2022-09-23T06:33:41;3.70;;;3.40;;
16502;SDS011;53067;48.114;11.694;2022-09-23T06:36:10;5.60;;;3.50;;
16502;SDS011;53067;48.114;11.694;2022-09-23T06:38:40;3.53;;;3.30;;
16502;SDS011;53067;48.114;11.694;2022-09-23T06:41:13;3.40;;;3.20;;
16502;SDS011;53067;48.114;11.694;2022-09-23T06:43:41;4.80;;;3.60;;
16502;SDS011;53067;48.114;11.694;2022-09-23T06:46:08;6.03;;;3.47;;
16502;SDS011;53067;48.114;11.694;2022-09-23T06:48:40;3.40;;;3.10;;
16502;SDS011;53067;48.114;11.694;2022-09-23T06:51:09;3.80;;;3.37;;
16502;SDS011;53067;48.114;11.694;2022-09-23T06:53:39;3.87;;;3.13;;
16502;SDS011;53067;48.114;11.694;2022-09-23T06:56:08;4.13;;;3.03;;
16502;SDS011;53067;48.114;11.694;2022-09-23T06:58:36;4.00;;;3.10;;
16502;SDS011;53067;48.114;11.694;2022-09-23T07:01:11;4.17;;;3.77;;
16502;SDS011;53067;48.114;11.694;2022-09-23T07:03:35;6.03;;;4.50;;
16502;SDS011;53067;48.114;11.694;2022-09-23T07:06:04;5.60;;;4.33;;
16502;SDS011;53067;48.114;11.694;2022-09-23T07:08:33;3.37;;;3.07;;
16502;SDS011;53067;48.114;11.694;2022-09-23T07:11:06;5.47;;;3.00;;
16502;SDS011;53067;48.114;11.694;2022-09-23T07:13:32;4.23;;;3.43;;
16502;SDS011;53067;48.114;11.694;2022-09-23T07:16:01;3.20;;;2.97;;
16502;SDS011;53067;48.114;11.694;2022-09-23T07:18:31;3.40;;;2.70;;
16502;SDS011;53067;48.114;11.694;2022-09-23T07:21:11;2.93;;;2.73;;
16502;SDS011;53067;48.114;11.694;2022-09-23T07:23:43;3.43;;;2.20;;
16502;SDS011;53067;48.114;11.694;2022-09-23T07:26:13;2.60;;;2.50;;
16502;SDS011;53067;48.114;11.694;2022-09-23T07:28:41;5.70;;;2.87;;
16502;SDS011;53067;48.114;11.694;2022-09-23T07:31:10;4.63;;;2.47;;
16502;SDS011;53067;48.114;11.694;2022-09-23T07:33:40;2.73;;;2.53;;
16502;SDS011;53067;48.114;11.694;2022-09-23T07:36:12;3.97;;;2.60;;
16502;SDS011;53067;48.114;11.694;2022-09-23T07:38:43;3.67;;;2.80;;
16502;SDS011;53067;48.114;11.694;2022-09-23T07:41:13;2.50;;;2.40;;
16502;SDS011;53067;48.114;11.694;2022-09-23T07:43:42;2.27;;;2.17;;
16502;SDS011;53067;48.114;11.694;2022-09-23T07:46:16;2.57;;;2.37;;
16502;SDS011;53067;48.114;11.694;2022-09-23T07:48:42;3.57;;;2.87;;
16502;SDS011;53067;48.114;11.694;2022-09-23T07:51:12;2.20;;;2.10;;
16502;SDS011;53067;48.114;11.694;2022-09-23T07:53:46;5.10;;;2.63;;
16502;SDS011;53067;48.114;11.694;2022-09-23T07:56:15;2.70;;;2.50;;
16502;SDS011;53067;48.114;11.694;2022-09-23T07:58:44;4.00;;;2.33;;
16502;SDS011;53067;48.114;11.694;2022-09-23T08:01:14;2.93;;;2.50;;
16502;SDS011;53067;48.114;11.694;2022-09-23T08:03:44;4.50;;;2.20;;
16502;SDS011;53067;48.114;11.694;2022-09-23T08:06:11;2.50;;;2.30;;
16502;SDS011;53067;48.114;11.694;2022-09-23T08:08:39;2.60;;;2.40;;
16502;SDS011;53067;48.114;11.694;2022-09-23T08:11:11;2.43;;;2.20;;
16502;SDS011;53067;48.114;11.694;2022-09-23T08:13:39;2.53;;;2.30;;
16502;SDS011;53067;48.114;11.694;2022-09-23T08:16:08;2.63;;;2.43;;
16502;SDS011;53067;48.114;11.694;2022-09-23T08:18:36;2.60;;;2.03;;
16502;SDS011;53067;48.114;11.694;2022-09-23T08:21:03;2.83;;;2.63;;
16502;SDS011;53067;48.114;11.694;2022-09-23T08:23:31;2.50;;;2.00;;
16502;SDS011;53067;48.114;11.694;2022-09-23T08:25:59;2.33;;;2.13;;
16502;SDS011;53067;48.114;11.694;2022-09-23T08:28:29;2.33;;;2.23;;
16502;SDS011;53067;48.114;11.694;2022-09-23T08:30:58;2.30;;;2.20;;
16502;SDS011;53067;48.114;11.694;2022-09-23T08:33:26;2.40;;;2.20;;
16502;SDS011;53067;48.114;11.694;2022-09-23T08:35:58;2.07;;;1.97;;
16502;SDS011;53067;48.114;11.694;2022-09-23T08:38:32;2.13;;;2.03;;
16502;SDS011;53067;48.114;11.694;2022-09-23T08:41:08;2.20;;;2.10;;
16502;SDS011;53067;48.114;11.694;2022-09-23T08:43:58;2.27;;;2.03;;
16502;SDS011;53067;48.114;11.694;2022-09-23T08:46:25;2.03;;;1.70;;
16502;SDS011;53067;48.114;11.694;2022-09-23T08:48:54;4.37;;;1.97;;
16502;SDS011;53067;48.114;11.694;2022-09-23T08:51:24;1.83;;;1.73;;
16502;SDS011;53067;48.114;11.694;2022-09-23T08:53:52;4.10;;;1.93;;
16502;SDS011;53067;48.114;11.694;2022-09-23T08:56:22;2.00;;;1.90;;
16502;SDS011;53067;48.114;11.694;2022-09-23T09:01:49;1.80;;;1.70;;
16502;SDS011;53067;48.114;11.694;2022-09-23T09:09:39;2.10;;;2.00;;
16502;SDS011;53067;48.114;11.694;2022-09-23T09:12:16;2.70;;;2.40;;
16502;SDS011;53067;48.114;11.694;2022-09-23T09:15:01;2.13;;;1.93;;
16502;SDS011;53067;48.114;11.694;2022-09-23T09:20:16;2.07;;;1.87;;
16502;SDS011;53067;48.114;11.694;2022-09-23T09:22:51;1.80;;;1.70;;
16502;SDS011;53067;48.114;11.694;2022-09-23T09:25:32;2.40;;;2.03;;
16502;SDS011;53067;48.114;11.694;2022-09-23T09:34:33;2.37;;;2.17;;
16502;SDS011;53067;48.114;11.694;2022-09-23T09:39:34;2.73;;;2.07;;
16502;SDS011;53067;48.114;11.694;2022-09-23T09:42:02;2.40;;;2.20;;
16502;SDS011;53067;48.114;11.694;2022-09-23T09:44:41;2.90;;;2.00;;
16502;SDS011;53067;48.114;11.694;2022-09-23T09:47:46;1.90;;;1.80;;
16502;SDS011;53067;48.114;11.694;2022-09-23T09:50:44;2.10;;;1.95;;
16502;SDS011;53067;48.114;11.694;2022-09-23T09:53:20;2.30;;;2.10;;
16502;SDS011;53067;48.114;11.694;2022-09-23T09:56:03;2.55;;;2.05;;
16502;SDS011;53067;48.114;11.694;2022-09-23T10:01:40;2.40;;;2.30;;
16502;SDS011;53067;48.114;11.694;2022-09-23T10:04:19;3.67;;;2.60;;
16502;SDS011;53067;48.114;11.694;2022-09-23T10:07:05;2.43;;;2.33;;
16502;SDS011;53067;48.114;11.694;2022-09-23T10:09:36;4.12;;;2.72;;
16502;SDS011;53067;48.114;11.694;2022-09-23T10:12:12;2.33;;;2.17;;
16502;SDS011;53067;48.114;11.694;2022-09-23T10:14:43;2.77;;;2.57;;
16502;SDS011;53067;48.114;11.694;2022-09-23T10:17:14;2.70;;;2.50;;
16502;SDS011;53067;48.114;11.694;2022-09-23T10:20:01;2.70;;;2.50;;
16502;SDS011;53067;48.114;11.694;2022-09-23T10:22:26;2.47;;;2.37;;
16502;SDS011;53067;48.114;11.694;2022-09-23T10:24:57;3.15;;;2.75;;
16502;SDS011;53067;48.114;11.694;2022-09-23T10:27:32;2.50;;;2.40;;
16502;SDS011;53067;48.114;11.694;2022-09-23T10:30:20;2.50;;;2.30;;
16502;SDS011;53067;48.114;11.694;2022-09-23T10:32:50;3.10;;;2.70;;
16502;SDS011;53067;48.114;11.694;2022-09-23T10:35:20;2.70;;;2.40;;
16502;SDS011;53067;48.114;11.694;2022-09-23T10:37:53;2.80;;;2.60;;
16502;SDS011;53067;48.114;11.694;2022-09-23T10:43:23;2.40;;;2.30;;
16502;SDS011;53067;48.114;11.694;2022-09-23T10:46:18;2.77;;;2.58;;
16502;SDS011;53067;48.114;11.694;2022-09-23T11:08:38;2.33;;;2.22;;
16502;SDS011;53067;48.114;11.694;2022-09-23T11:14:12;2.67;;;2.50;;
16502;SDS011;53067;48.114;11.694;2022-09-23T11:33:26;3.45;;;2.45;;
16502;SDS011;53067;48.114;11.694;2022-09-23T11:35:55;2.17;;;2.08;;
16502;SDS011;53067;48.114;11.694;2022-09-23T11:38:30;2.10;;;2.00;;
16502;SDS011;53067;48.114;11.694;2022-09-23T11:40:59;2.33;;;2.10;;
16502;SDS011;53067;48.114;11.694;2022-09-23T11:43:29;2.27;;;2.10;;
16502;SDS011;53067;48.114;11.694;2022-09-23T11:46:22;2.30;;;2.20;;
16502;SDS011;53067;48.114;11.694;2022-09-23T11:49:15;2.35;;;2.15;;
16502;SDS011;53067;48.114;11.694;2022-09-23T11:57:23;2.20;;;2.10;;
16502;SDS011;53067;48.114;11.694;2022-09-23T11:59:55;2.20;;;2.10;;
16502;SDS011;53067;48.114;11.694;2022-09-23T12:05:21;2.35;;;2.12;;
16502;SDS011;53067;48.114;11.694;2022-09-23T12:10:54;2.52;;;2.33;;
16502;SDS011;53067;48.114;11.694;2022-09-23T12:18:37;2.72;;;2.55;;
16502;SDS011;53067;48.114;11.694;2022-09-23T12:26:58;2.70;;;2.50;;
16502;SDS011;53067;48.114;11.694;2022-09-23T12:29:29;2.80;;;2.58;;
16502;SDS011;53067;48.114;11.694;2022-09-23T12:31:59;2.92;;;2.50;;
16502;SDS011;53067;48.114;11.694;2022-09-23T12:37:21;3.70;;;2.75;;
16502;SDS011;53067;48.114;11.694;2022-09-23T12:39:48;2.55;;;2.35;;
16502;SDS011;53067;48.114;11.694;2022-09-23T12:42:17;2.70;;;2.50;;
16502;SDS011;53067;48.114;11.694;2022-09-23T12:44:47;2.70;;;2.50;;
16502;SDS011;53067;48.114;11.694;2022-09-23T12:50:32;2.85;;;2.60;;
16502;SDS011;53067;48.114;11.694;2022-09-23T12:52:34;2.47;;;2.27;;
16502;SDS011;53067;48.114;11.694;2022-09-23T12:55:42;3.30;;;3.00;;
16502;SDS011;53067;48.114;11.694;2022-09-23T12:57:48;3.15;;;2.55;;
16502;SDS011;53067;48.114;11.694;2022-09-23T13:02:53;2.72;;;2.60;;
16502;SDS011;53067;48.114;11.694;2022-09-23T13:05:41;3.35;;;2.33;;
16502;SDS011;53067;48.114;11.694;2022-09-23T13:08:28;3.02;;;2.60;;
16502;SDS011;53067;48.114;11.694;2022-09-23T13:11:04;3.33;;;2.83;;
16502;SDS011;53067;48.114;11.694;2022-09-23T13:13:31;3.80;;;2.77;;
16502;SDS011;53067;48.114;11.694;2022-09-23T13:16:17;2.33;;;2.15;;
16502;SDS011;53067;48.114;11.694;2022-09-23T13:29:36;3.20;;;3.00;;
16502;SDS011;53067;48.114;11.694;2022-09-23T13:32:37;2.70;;;2.50;;
16502;SDS011;53067;48.114;11.694;2022-09-23T13:37:44;3.42;;;2.85;;
16502;SDS011;53067;48.114;11.694;2022-09-23T13:40:17;3.30;;;3.00;;
16502;SDS011;53067;48.114;11.694;2022-09-23T13:43:18;4.20;;;3.12;;
16502;SDS011;53067;48.114;11.694;2022-09-23T13:45:51;3.35;;;3.05;;
16502;SDS011;53067;48.114;11.694;2022-09-23T13:48:21;2.83;;;2.62;;
16502;SDS011;53067;48.114;11.694;2022-09-23T13:50:52;2.90;;;2.70;;
16502;SDS011;53067;48.114;11.694;2022-09-23T13:53:27;2.98;;;2.80;;
16502;SDS011;53067;48.114;11.694;2022-09-23T13:56:10;4.40;;;2.83;;
16502;SDS011;53067;48.114;11.694;2022-09-23T13:58:39;3.55;;;2.60;;
16502;SDS011;53067;48.114;11.694;2022-09-23T14:01:08;2.55;;;2.40;;
16502;SDS011;53067;48.114;11.694;2022-09-23T14:03:38;2.60;;;2.50;;
16502;SDS011;53067;48.114;11.694;2022-09-23T14:06:09;3.27;;;2.65;;
16502;SDS011;53067;48.114;11.694;2022-09-23T14:08:49;3.72;;;3.30;;
16502;SDS011;53067;48.114;11.694;2022-09-23T14:11:22;3.27;;;2.85;;
16502;SDS011;53067;48.114;11.694;2022-09-23T14:13:54;3.83;;;2.92;;
16502;SDS011;53067;48.114;11.694;2022-09-23T14:16:23;3.00;;;2.80;;
16502;SDS011;53067;48.114;11.694;2022-09-23T14:18:58;2.65;;;2.50;;
16502;SDS011;53067;48.114;11.694;2022-09-23T14:21:30;3.22;;;2.98;;
16502;SDS011;53067;48.114;11.694;2022-09-23T14:29:44;3.10;;;2.85;;
16502;SDS011;53067;48.114;11.694;2022-09-23T14:32:15;2.92;;;2.67;;
16502;SDS011;53067;48.114;11.694;2022-09-23T14:34:50;4.70;;;3.00;;
16502;SDS011;53067;48.114;11.694;2022-09-23T14:37:51;3.72;;;2.83;;
16502;SDS011;53067;48.114;11.694;2022-09-23T14:40:49;3.40;;;3.10;;
16502;SDS011;53067;48.114;11.694;2022-09-23T14:43:23;3.15;;;2.85;;
16502;SDS011;53067;48.114;11.694;2022-09-23T14:45:53;3.20;;;3.00;;
16502;SDS011;53067;48.114;11.694;2022-09-23T14:48:23;4.17;;;2.80;;
16502;SDS011;53067;48.114;11.694;2022-09-23T14:50:56;4.15;;;2.70;;
16502;SDS011;53067;48.114;11.694;2022-09-23T14:53:44;3.00;;;2.80;;
16502;SDS011;53067;48.114;11.694;2022-09-23T14:56:15;4.00;;;3.40;;
16502;SDS011;53067;48.114;11.694;2022-09-23T15:04:10;3.10;;;2.80;;
16502;SDS011;53067;48.114;11.694;2022-09-23T15:06:52;3.50;;;2.70;;
16502;SDS011;53067;48.114;11.694;2022-09-23T15:09:27;3.42;;;3.12;;
16502;SDS011;53067;48.114;11.694;2022-09-23T15:12:00;3.50;;;3.20;;
16502;SDS011;53067;48.114;11.694;2022-09-23T15:14:32;2.95;;;2.75;;
16502;SDS011;53067;48.114;11.694;2022-09-23T15:17:01;7.78;;;3.15;;
16502;SDS011;53067;48.114;11.694;2022-09-23T15:19:32;5.70;;;3.27;;
16502;SDS011;53067;48.114;11.694;2022-09-23T15:22:02;4.47;;;2.60;;
16502;SDS011;53067;48.114;11.694;2022-09-23T15:24:41;3.08;;;2.87;;
16502;SDS011;53067;48.114;11.694;2022-09-23T15:27:18;6.95;;;5.17;;
16502;SDS011;53067;48.114;11.694;2022-09-23T15:29:47;6.08;;;3.70;;
16502;SDS011;53067;48.114;11.694;2022-09-23T15:32:17;5.15;;;4.70;;
16502;SDS011;53067;48.114;11.694;2022-09-23T15:34:46;3.77;;;3.52;;
16502;SDS011;53067;48.114;11.694;2022-09-23T15:37:15;3.72;;;3.37;;
16502;SDS011;53067;48.114;11.694;2022-09-23T15:39:43;3.65;;;3.45;;
16502;SDS011;53067;48.114;11.694;2022-09-23T15:42:10;3.80;;;3.50;;
16502;SDS011;53067;48.114;11.694;2022-09-23T15:44:38;3.35;;;3.05;;
16502;SDS011;53067;48.114;11.694;2022-09-23T15:47:05;4.08;;;3.70;;
16502;SDS011;53067;48.114;11.694;2022-09-23T15:49:37;3.62;;;3.05;;
16502;SDS011;53067;48.114;11.694;2022-09-23T15:52:05;3.45;;;3.15;;
16502;SDS011;53067;48.114;11.694;2022-09-23T15:54:35;3.62;;;3.33;;
16502;SDS011;53067;48.114;11.694;2022-09-23T15:57:03;4.78;;;3.92;;
16502;SDS011;53067;48.114;11.694;2022-09-23T15:59:30;4.35;;;3.95;;
16502;SDS011;53067;48.114;11.694;2022-09-23T16:01:59;4.10;;;3.60;;
16502;SDS011;53067;48.114;11.694;2022-09-23T16:04:30;3.87;;;3.58;;
16502;SDS011;53067;48.114;11.694;2022-09-23T16:06:57;3.90;;;3.50;;
16502;SDS011;53067;48.114;11.694;2022-09-23T16:09:26;4.33;;;4.03;;
16502;SDS011;53067;48.114;11.694;2022-09-23T16:11:55;5.72;;;4.42;;
16502;SDS011;53067;48.114;11.694;2022-09-23T16:14:23;6.10;;;4.70;;
16502;SDS011;53067;48.114;11.694;2022-09-23T16:16:50;5.80;;;4.62;;
16502;SDS011;53067;48.114;11.694;2022-09-23T16:19:18;3.75;;;3.55;;
16502;SDS011;53067;48.114;11.694;2022-09-23T16:21:45;4.23;;;3.87;;
16502;SDS011;53067;48.114;11.694;2022-09-23T16:24:14;3.85;;;3.50;;
16502;SDS011;53067;48.114;11.694;2022-09-23T16:26:43;4.00;;;3.47;;
16502;SDS011;53067;48.114;11.694;2022-09-23T16:29:12;3.60;;;3.37;;
16502;SDS011;53067;48.114;11.694;2022-09-23T16:31:47;4.90;;;3.60;;
16502;SDS011;53067;48.114;11.694;2022-09-23T16:34:14;3.92;;;3.50;;
16502;SDS011;53067;48.114;11.694;2022-09-23T16:36:43;4.28;;;3.33;;
16502;SDS011;53067;48.114;11.694;2022-09-23T16:39:11;3.72;;;3.40;;
16502;SDS011;53067;48.114;11.694;2022-09-23T16:41:39;3.10;;;2.90;;
16502;SDS011;53067;48.114;11.694;2022-09-23T16:44:08;4.05;;;3.60;;
16502;SDS011;53067;48.114;11.694;2022-09-23T16:46:37;3.22;;;2.98;;
16502;SDS011;53067;48.114;11.694;2022-09-23T16:49:06;3.65;;;3.35;;
16502;SDS011;53067;48.114;11.694;2022-09-23T16:51:35;4.17;;;3.40;;
16502;SDS011;53067;48.114;11.694;2022-09-23T16:54:07;4.20;;;3.90;;
16502;SDS011;53067;48.114;11.694;2022-09-23T16:56:37;4.10;;;3.77;;
16502;SDS011;53067;48.114;11.694;2022-09-23T16:59:10;4.07;;;3.77;;
16502;SDS011;53067;48.114;11.694;2022-09-23T17:01:38;4.10;;;3.80;;
16502;SDS011;53067;48.114;11.694;2022-09-23T17:04:24;4.80;;;4.35;;
16502;SDS011;53067;48.114;11.694;2022-09-23T17:06:52;4.00;;;3.70;;
16502;SDS011;53067;48.114;11.694;2022-09-23T17:09:22;4.77;;;4.40;;
16502;SDS011;53067;48.114;11.694;2022-09-23T17:11:54;6.20;;;4.40;;
16502;SDS011;53067;48.114;11.694;2022-09-23T17:14:24;12.17;;;10.93;;
16502;SDS011;53067;48.114;11.694;2022-09-23T17:16:53;20.07;;;16.30;;
16502;SDS011;53067;48.114;11.694;2022-09-23T17:19:23;19.20;;;14.50;;
16502;SDS011;53067;48.114;11.694;2022-09-23T17:21:51;14.43;;;12.27;;
16502;SDS011;53067;48.114;11.694;2022-09-23T17:24:19;12.73;;;10.80;;
16502;SDS011;53067;48.114;11.694;2022-09-23T17:26:46;18.13;;;14.70;;
16502;SDS011;53067;48.114;11.694;2022-09-23T17:29:14;17.30;;;14.47;;
16502;SDS011;53067;48.114;11.694;2022-09-23T17:31:41;15.03;;;12.73;;
16502;SDS011;53067;48.114;11.694;2022-09-23T17:34:09;10.13;;;9.10;;
16502;SDS011;53067;48.114;11.694;2022-09-23T17:36:36;10.80;;;9.70;;
16502;SDS011;53067;48.114;11.694;2022-09-23T17:39:04;8.77;;;7.90;;
16502;SDS011;53067;48.114;11.694;2022-09-23T17:41:31;7.37;;;5.97;;